createdAt,value
2022-08-26T00:01:19.522Z,3.45
2022-08-26T00:03:56.381Z,3.60
2022-08-26T00:06:23.148Z,4.15
2022-08-26T00:08:49.895Z,3.63
2022-08-26T00:11:26.978Z,3.60
2022-08-26T00:13:55.888Z,3.40
2022-08-26T00:16:25.736Z,3.55
2022-08-26T00:18:53.155Z,3.92
2022-08-26T00:21:20.399Z,3.65
2022-08-26T00:23:47.684Z,3.13
2022-08-26T00:26:15.024Z,3.40
2022-08-26T00:28:41.860Z,3.00
2022-08-26T00:31:10.973Z,3.45
2022-08-26T00:33:39.156Z,3.53
2022-08-26T00:36:06.887Z,3.03
2022-08-26T00:38:34.928Z,3.20
2022-08-26T00:41:05.974Z,2.70
2022-08-26T00:43:46.318Z,3.13
2022-08-26T00:46:18.795Z,2.40
2022-08-26T00:48:49.842Z,2.67
2022-08-26T00:51:23.095Z,2.60
2022-08-26T00:53:54.990Z,2.08
2022-08-26T00:56:50.099Z,2.67
2022-08-26T00:59:17.891Z,2.10
2022-08-26T01:01:45.964Z,2.03
2022-08-26T01:04:17.123Z,2.30
2022-08-26T01:06:44.612Z,2.30
2022-08-26T01:09:11.808Z,2.20
2022-08-26T01:11:38.906Z,1.80
2022-08-26T01:14:07.544Z,1.90
2022-08-26T01:16:35.805Z,1.85
2022-08-26T01:19:20.575Z,1.88
2022-08-26T01:21:53.813Z,1.85
2022-08-26T01:24:20.566Z,1.90
2022-08-26T01:26:48.563Z,1.95
2022-08-26T01:29:19.079Z,1.60
2022-08-26T01:31:51.122Z,1.75
2022-08-26T01:34:25.116Z,1.80
2022-08-26T01:37:16.006Z,1.98
2022-08-26T01:39:44.379Z,2.00
2022-08-26T01:42:14.568Z,1.75
2022-08-26T01:44:52.772Z,1.65
2022-08-26T01:47:23.768Z,2.15
2022-08-26T01:49:53.607Z,2.05
2022-08-26T01:52:27.581Z,1.60
2022-08-26T01:54:57.222Z,1.73
2022-08-26T01:57:25.055Z,1.95
2022-08-26T01:59:55.816Z,1.60
2022-08-26T02:02:23.494Z,1.63
2022-08-26T02:04:57.199Z,1.67
2022-08-26T02:09:53.946Z,1.52
2022-08-26T02:12:20.984Z,1.40
2022-08-26T02:14:53.144Z,1.50
2022-08-26T02:17:22.991Z,1.45
2022-08-26T02:19:50.391Z,1.70
2022-08-26T02:22:22.366Z,1.45
2022-08-26T02:25:00.611Z,1.88
2022-08-26T02:27:32.796Z,1.40
2022-08-26T02:30:31.904Z,1.65
2022-08-26T02:33:03.708Z,1.30
2022-08-26T02:35:33.452Z,1.10
2022-08-26T02:38:00.632Z,1.20
2022-08-26T02:40:31.400Z,1.40
2022-08-26T02:42:58.383Z,1.40
2022-08-26T02:45:28.829Z,1.40
2022-08-26T02:47:58.035Z,1.50
2022-08-26T02:50:26.839Z,1.25
2022-08-26T02:52:53.625Z,1.30
2022-08-26T02:55:20.524Z,1.10
2022-08-26T02:57:47.299Z,1.20
2022-08-26T03:00:15.293Z,1.20
2022-08-26T03:02:42.375Z,1.42
2022-08-26T03:05:10.063Z,1.40
2022-08-26T03:07:36.888Z,1.17
2022-08-26T03:10:08.192Z,1.40
2022-08-26T03:12:35.603Z,1.33
2022-08-26T03:15:02.383Z,1.58
2022-08-26T03:17:45.584Z,1.40
2022-08-26T03:20:13.685Z,1.30
2022-08-26T03:22:42.367Z,1.50
2022-08-26T03:25:11.963Z,1.40
2022-08-26T03:27:38.950Z,1.20
2022-08-26T03:30:25.064Z,1.60
2022-08-26T03:32:53.390Z,1.45
2022-08-26T03:35:20.559Z,1.40
2022-08-26T03:37:49.430Z,1.58
2022-08-26T03:40:16.415Z,1.30
2022-08-26T03:42:47.666Z,1.65
2022-08-26T03:45:16.502Z,1.30
2022-08-26T03:47:43.301Z,1.50
2022-08-26T03:50:14.049Z,1.25
2022-08-26T03:52:43.836Z,1.20
2022-08-26T03:55:11.600Z,1.27
2022-08-26T03:57:38.305Z,1.23
2022-08-26T04:00:08.537Z,1.10
2022-08-26T04:02:35.517Z,1.25
2022-08-26T04:05:02.899Z,1.23
2022-08-26T04:07:30.242Z,1.42
2022-08-26T04:09:59.136Z,1.40
2022-08-26T04:12:26.046Z,1.10
2022-08-26T04:14:53.995Z,1.55
2022-08-26T04:17:21.074Z,1.10
2022-08-26T04:19:54.704Z,1.05
2022-08-26T04:22:24.239Z,1.15
2022-08-26T04:24:52.240Z,1.50
2022-08-26T04:27:19.011Z,1.17
2022-08-26T04:29:46.539Z,1.67
2022-08-26T04:32:15.413Z,1.13
2022-08-26T04:34:43.561Z,1.10
2022-08-26T04:37:11.803Z,1.30
2022-08-26T04:39:38.515Z,1.25
2022-08-26T04:42:05.918Z,1.00
2022-08-26T04:44:35.999Z,1.00
2022-08-26T04:47:03.108Z,1.20
2022-08-26T04:49:35.344Z,1.33
2022-08-26T04:52:03.873Z,1.40
2022-08-26T04:54:31.593Z,1.02
2022-08-26T04:56:59.218Z,0.90
2022-08-26T04:59:25.952Z,1.20
2022-08-26T05:01:57.225Z,1.42
2022-08-26T05:04:23.984Z,1.17
2022-08-26T05:06:54.060Z,1.20
2022-08-26T05:09:23.633Z,1.10
2022-08-26T05:11:52.320Z,1.25
2022-08-26T05:14:20.715Z,1.23
2022-08-26T05:16:47.888Z,1.27
2022-08-26T05:19:18.890Z,1.30
2022-08-26T05:21:47.124Z,1.00
2022-08-26T05:24:14.320Z,1.10
2022-08-26T05:26:41.617Z,1.40
2022-08-26T05:29:11.313Z,1.45
2022-08-26T05:31:37.989Z,1.20
2022-08-26T05:34:04.744Z,1.52
2022-08-26T05:36:34.359Z,1.40
2022-08-26T05:39:03.080Z,1.30
2022-08-26T05:41:36.232Z,1.10
2022-08-26T05:44:06.367Z,1.38
2022-08-26T05:46:34.428Z,1.10
2022-08-26T05:49:01.675Z,1.20
2022-08-26T05:51:30.361Z,1.30
2022-08-26T05:53:57.600Z,1.02
2022-08-26T05:56:26.061Z,1.40
2022-08-26T05:58:53.299Z,1.52
2022-08-26T06:01:23.773Z,1.33
2022-08-26T06:03:52.869Z,1.30
2022-08-26T06:06:27.831Z,1.58
2022-08-26T06:08:59.027Z,1.50
2022-08-26T06:11:27.295Z,1.20
2022-08-26T06:13:57.107Z,1.50
2022-08-26T06:16:27.805Z,1.05
2022-08-26T06:18:54.792Z,1.50
2022-08-26T06:21:23.894Z,1.30
2022-08-26T06:24:11.646Z,1.20
2022-08-26T06:26:40.958Z,1.30
2022-08-26T06:29:09.955Z,1.17
2022-08-26T06:31:36.808Z,1.23
2022-08-26T06:34:09.878Z,1.13
2022-08-26T06:36:37.851Z,1.10
2022-08-26T06:39:10.759Z,0.90
2022-08-26T06:41:43.151Z,0.85
2022-08-26T06:46:44.285Z,0.90
2022-08-26T06:49:12.331Z,1.15
2022-08-26T06:51:40.735Z,1.20
2022-08-26T06:54:08.014Z,1.10
2022-08-26T06:56:41.177Z,1.30
2022-08-26T06:59:10.096Z,1.10
2022-08-26T07:01:46.017Z,1.20
2022-08-26T07:04:15.679Z,1.00
2022-08-26T07:06:48.836Z,1.10
2022-08-26T07:09:16.727Z,1.00
2022-08-26T07:11:44.434Z,0.80
2022-08-26T07:14:11.378Z,0.82
2022-08-26T07:16:39.731Z,1.17
2022-08-26T07:19:11.131Z,1.00
2022-08-26T07:21:41.439Z,0.98
2022-08-26T07:24:11.038Z,1.15
2022-08-26T07:26:39.024Z,1.02
2022-08-26T07:29:12.305Z,1.17
2022-08-26T07:31:39.389Z,1.10
2022-08-26T07:34:09.259Z,1.02
2022-08-26T07:36:36.513Z,0.95
2022-08-26T07:39:03.654Z,0.90
2022-08-26T07:44:02.267Z,1.02
2022-08-26T07:46:31.231Z,1.13
2022-08-26T07:48:58.219Z,1.02
2022-08-26T07:51:25.987Z,1.00
2022-08-26T07:53:54.688Z,0.88
2022-08-26T07:56:22.934Z,1.35
2022-08-26T07:58:53.297Z,1.00
2022-08-26T08:01:21.863Z,1.20
2022-08-26T08:03:51.354Z,0.80
2022-08-26T08:06:27.230Z,0.90
2022-08-26T08:08:54.448Z,1.08
2022-08-26T08:11:21.323Z,1.13
2022-08-26T08:13:49.748Z,1.10
2022-08-26T08:16:28.151Z,0.95
2022-08-26T08:18:59.206Z,0.80
2022-08-26T08:21:26.843Z,1.17
2022-08-26T08:23:55.825Z,0.70
2022-08-26T08:26:24.171Z,0.85
2022-08-26T08:28:53.506Z,1.27
2022-08-26T08:31:56.759Z,1.20
2022-08-26T08:34:18.395Z,0.98
2022-08-26T08:36:46.253Z,0.80
2022-08-26T08:39:13.984Z,0.90
2022-08-26T08:41:44.916Z,0.80
2022-08-26T08:44:20.904Z,0.98
2022-08-26T08:46:54.185Z,0.73
2022-08-26T08:49:21.952Z,0.93
2022-08-26T08:51:54.249Z,1.05
2022-08-26T08:54:23.118Z,0.70
2022-08-26T08:57:02.206Z,1.05
2022-08-26T08:59:35.287Z,0.80
2022-08-26T09:02:33.657Z,1.00
2022-08-26T09:05:24.078Z,1.10
2022-08-26T09:07:58.696Z,0.90
2022-08-26T09:10:41.086Z,0.80
2022-08-26T09:13:16.870Z,0.80
2022-08-26T09:16:08.289Z,1.05
2022-08-26T09:18:59.563Z,0.93
2022-08-26T09:21:26.806Z,1.40
2022-08-26T09:23:55.797Z,0.65
2022-08-26T09:26:30.560Z,1.17
2022-08-26T09:29:04.675Z,0.90
2022-08-26T09:31:35.684Z,0.90
2022-08-26T09:34:17.570Z,1.20
2022-08-26T09:36:59.100Z,0.80
2022-08-26T09:39:27.728Z,1.00
2022-08-26T09:42:12.907Z,0.80
2022-08-26T09:45:06.413Z,0.98
2022-08-26T09:47:39.424Z,1.00
2022-08-26T09:50:30.874Z,0.60
2022-08-26T09:53:21.065Z,0.63
2022-08-26T09:56:12.099Z,0.95
2022-08-26T09:58:41.855Z,0.80
2022-08-26T10:01:26.666Z,0.80
2022-08-26T10:04:10.185Z,0.80
2022-08-26T10:06:44.255Z,1.35
2022-08-26T10:09:17.273Z,1.27
2022-08-26T10:11:51.924Z,0.60
2022-08-26T10:14:29.836Z,0.77
2022-08-26T10:17:14.360Z,0.98
2022-08-26T10:19:56.176Z,0.90
2022-08-26T10:23:03.230Z,0.80
2022-08-26T10:25:40.741Z,1.15
2022-08-26T10:28:20.656Z,0.70
2022-08-26T10:31:20.618Z,0.90
2022-08-26T10:33:58.822Z,0.60
2022-08-26T10:39:58.653Z,0.90
2022-08-26T10:43:11.133Z,1.10
2022-08-26T10:45:46.540Z,0.82
2022-08-26T10:48:18.264Z,0.70
2022-08-26T10:50:47.749Z,0.90
2022-08-26T10:53:27.156Z,0.70
2022-08-26T10:56:24.778Z,0.63
2022-08-26T10:59:28.929Z,0.80
2022-08-26T11:02:25.242Z,1.45
2022-08-26T11:05:04.577Z,0.57
2022-08-26T11:07:46.318Z,0.70
2022-08-26T11:10:18.934Z,0.73
2022-08-26T11:12:50.363Z,0.70
2022-08-26T11:15:20.229Z,0.80
2022-08-26T11:17:51.604Z,0.80
2022-08-26T11:20:39.329Z,0.77
2022-08-26T11:23:20.592Z,0.90
2022-08-26T11:25:57.354Z,0.70
2022-08-26T11:28:37.775Z,0.70
2022-08-26T11:31:10.241Z,0.70
2022-08-26T11:33:59.677Z,0.80
2022-08-26T11:36:47.636Z,0.73
2022-08-26T11:39:25.321Z,1.20
2022-08-26T11:41:55.416Z,1.05
2022-08-26T11:47:03.058Z,0.95
2022-08-26T11:49:31.699Z,0.80
2022-08-26T11:52:21.969Z,0.80
2022-08-26T11:55:06.457Z,0.90
2022-08-26T11:57:39.692Z,0.57
2022-08-26T12:00:13.603Z,0.70
2022-08-26T12:02:42.037Z,0.82
2022-08-26T12:05:08.952Z,0.80
2022-08-26T12:07:35.847Z,0.73
2022-08-26T12:10:05.022Z,0.70
2022-08-26T12:12:36.133Z,1.00
2022-08-26T12:15:12.046Z,0.88
2022-08-26T12:17:39.887Z,0.75
2022-08-26T12:20:45.665Z,1.00
2022-08-26T12:23:29.806Z,0.85
2022-08-26T12:26:11.007Z,0.65
2022-08-26T12:28:51.692Z,0.57
2022-08-26T12:31:29.513Z,1.02
2022-08-26T12:33:59.127Z,0.85
2022-08-26T12:36:39.195Z,0.95
2022-08-26T12:39:14.786Z,0.80
2022-08-26T12:41:48.631Z,0.65
2022-08-26T12:44:42.273Z,0.73
2022-08-26T12:47:42.935Z,0.70
2022-08-26T12:50:32.135Z,0.80
2022-08-26T12:53:19.919Z,0.63
2022-08-26T12:55:53.936Z,0.68
2022-08-26T12:58:31.474Z,0.80
2022-08-26T13:01:04.355Z,0.70
2022-08-26T13:03:34.046Z,0.80
2022-08-26T13:06:22.145Z,0.82
2022-08-26T13:09:07.793Z,0.65
2022-08-26T13:11:53.044Z,0.95
2022-08-26T13:14:24.295Z,0.80
2022-08-26T13:16:51.853Z,1.10
2022-08-26T13:19:21.852Z,0.80
2022-08-26T13:21:52.774Z,0.80
2022-08-26T13:24:35.644Z,1.00
2022-08-26T13:27:03.723Z,0.98
2022-08-26T13:29:30.395Z,1.00
2022-08-26T13:31:58.826Z,0.90
2022-08-26T13:34:26.843Z,0.90
2022-08-26T13:36:56.173Z,0.90
2022-08-26T13:39:24.043Z,0.73
2022-08-26T13:41:51.279Z,1.05
2022-08-26T13:44:18.395Z,0.93
2022-08-26T13:49:16.900Z,1.00
2022-08-26T13:51:43.643Z,0.90
2022-08-26T13:54:10.291Z,0.88
2022-08-26T13:56:37.327Z,1.02
2022-08-26T13:59:05.416Z,1.00
2022-08-26T14:01:35.152Z,0.90
2022-08-26T14:04:02.850Z,1.13
2022-08-26T14:06:29.941Z,1.00
2022-08-26T14:08:56.667Z,0.93
2022-08-26T14:11:24.767Z,1.10
2022-08-26T14:13:51.453Z,1.25
2022-08-26T14:16:33.094Z,0.90
2022-08-26T14:19:01.328Z,1.13
2022-08-26T14:21:33.431Z,1.10
2022-08-26T14:24:01.102Z,1.00
2022-08-26T14:26:29.765Z,0.88
2022-08-26T14:29:00.485Z,1.13
2022-08-26T14:31:29.584Z,1.00
2022-08-26T14:34:03.205Z,1.08
2022-08-26T14:36:32.058Z,1.00
2022-08-26T14:39:08.336Z,1.20
2022-08-26T14:41:40.882Z,1.13
2022-08-26T14:46:49.392Z,0.90
2022-08-26T14:49:17.493Z,1.35
2022-08-26T14:51:44.290Z,1.20
2022-08-26T14:54:12.236Z,1.50
2022-08-26T14:57:03.678Z,0.93
2022-08-26T15:01:59.098Z,1.10
2022-08-26T15:04:26.451Z,0.90
2022-08-26T15:06:54.720Z,1.33
2022-08-26T15:09:22.377Z,1.23
2022-08-26T15:11:50.308Z,1.10
2022-08-26T15:14:19.874Z,1.80
2022-08-26T15:16:51.910Z,1.17
2022-08-26T15:19:19.353Z,1.17
2022-08-26T15:21:46.979Z,1.30
2022-08-26T15:24:16.192Z,1.10
2022-08-26T15:26:44.032Z,1.40
2022-08-26T15:29:11.333Z,1.20
2022-08-26T15:31:38.084Z,1.10
2022-08-26T15:34:07.986Z,1.10
2022-08-26T15:36:37.136Z,0.88
2022-08-26T15:39:06.735Z,1.27
2022-08-26T15:41:35.018Z,1.90
2022-08-26T15:44:03.490Z,1.33
2022-08-26T15:46:31.389Z,1.25
2022-08-26T15:48:58.485Z,1.13
2022-08-26T15:51:31.623Z,1.05
2022-08-26T15:53:59.076Z,1.10
2022-08-26T15:56:27.175Z,1.17
2022-08-26T15:58:56.139Z,1.52
2022-08-26T16:01:27.504Z,1.48
2022-08-26T16:03:55.919Z,1.45
2022-08-26T16:06:31.323Z,1.17
2022-08-26T16:08:58.305Z,1.30
2022-08-26T16:11:25.651Z,1.30
2022-08-26T16:13:52.723Z,1.00
2022-08-26T16:16:21.239Z,1.60
2022-08-26T16:18:48.368Z,1.10
2022-08-26T16:21:17.416Z,1.33
2022-08-26T16:23:45.726Z,1.50
2022-08-26T16:26:15.780Z,4.45
2022-08-26T16:28:43.603Z,2.00
2022-08-26T16:31:11.117Z,1.50
2022-08-26T16:33:38.135Z,1.20
2022-08-26T16:36:05.739Z,1.50
2022-08-26T16:38:32.487Z,1.60
2022-08-26T16:41:00.513Z,1.70
2022-08-26T16:43:27.406Z,1.65
2022-08-26T16:45:54.093Z,2.10
2022-08-26T16:48:20.803Z,2.30
2022-08-26T16:50:47.458Z,1.98
2022-08-26T16:55:46.889Z,1.45
2022-08-26T16:58:14.564Z,1.27
2022-08-26T17:00:41.430Z,1.30
2022-08-26T17:03:08.453Z,1.85
2022-08-26T17:05:36.154Z,1.23
2022-08-26T17:08:03.339Z,1.48
2022-08-26T17:10:30.811Z,1.58
2022-08-26T17:12:57.892Z,1.42
2022-08-26T17:15:25.109Z,1.27
2022-08-26T17:17:52.970Z,1.50
2022-08-26T17:20:22.249Z,1.42
2022-08-26T17:22:50.908Z,1.30
2022-08-26T17:25:24.743Z,1.40
2022-08-26T17:27:51.992Z,1.33
2022-08-26T17:30:19.965Z,1.10
2022-08-26T17:32:47.220Z,1.25
2022-08-26T17:35:15.649Z,1.08
2022-08-26T17:37:42.683Z,1.10
2022-08-26T17:40:13.046Z,1.33
2022-08-26T17:42:40.320Z,1.30
2022-08-26T17:45:08.850Z,1.40
2022-08-26T17:47:35.967Z,1.20
2022-08-26T17:50:04.621Z,1.23
2022-08-26T17:52:31.923Z,1.30
2022-08-26T17:54:59.288Z,1.33
2022-08-26T17:57:27.017Z,1.60
2022-08-26T17:59:54.331Z,1.40
2022-08-26T18:02:21.161Z,1.30
2022-08-26T18:04:48.210Z,1.30
2022-08-26T18:07:16.034Z,1.63
2022-08-26T18:09:43.490Z,1.80
2022-08-26T18:12:11.471Z,1.40
2022-08-26T18:14:38.564Z,1.40
2022-08-26T18:17:05.426Z,1.55
2022-08-26T18:19:32.233Z,1.75
2022-08-26T18:21:58.998Z,1.67
2022-08-26T18:24:28.526Z,1.42
2022-08-26T18:26:55.210Z,1.60
2022-08-26T18:29:22.015Z,1.88
2022-08-26T18:31:49.503Z,1.35
2022-08-26T18:34:16.820Z,1.70
2022-08-26T18:36:43.922Z,1.67
2022-08-26T18:39:12.004Z,1.27
2022-08-26T18:41:44.878Z,1.70
2022-08-26T18:44:13.864Z,1.90
2022-08-26T18:46:40.903Z,1.50
2022-08-26T18:49:08.244Z,1.55
2022-08-26T18:51:35.558Z,1.45
2022-08-26T18:54:05.354Z,1.38
2022-08-26T18:56:33.578Z,1.63
2022-08-26T18:59:00.682Z,1.83
2022-08-26T19:01:29.684Z,1.67
2022-08-26T19:03:58.093Z,1.73
2022-08-26T19:06:25.793Z,1.60
2022-08-26T19:08:53.275Z,1.70
2022-08-26T19:11:31.319Z,1.50
2022-08-26T19:13:58.570Z,1.48
2022-08-26T19:16:26.880Z,1.77
2022-08-26T19:18:54.375Z,1.75
2022-08-26T19:21:22.334Z,1.75
2022-08-26T19:23:49.828Z,1.50
2022-08-26T19:26:16.611Z,1.50
2022-08-26T19:28:43.519Z,1.45
2022-08-26T19:31:11.670Z,1.52
2022-08-26T19:33:42.961Z,1.30
2022-08-26T19:36:15.163Z,1.50
2022-08-26T19:38:42.744Z,1.48
2022-08-26T19:41:14.837Z,1.88
2022-08-26T19:43:41.896Z,1.60
2022-08-26T19:46:10.951Z,2.03
2022-08-26T19:48:37.651Z,1.77
2022-08-26T19:51:04.417Z,1.83
2022-08-26T19:53:31.623Z,2.00
2022-08-26T19:55:58.279Z,1.60
2022-08-26T19:58:24.952Z,1.70
2022-08-26T20:00:51.665Z,1.50
2022-08-26T20:03:18.380Z,1.95
2022-08-26T20:05:45.018Z,1.50
2022-08-26T20:08:21.862Z,1.63
2022-08-26T20:10:50.078Z,1.80
2022-08-26T20:13:17.282Z,1.67
2022-08-26T20:15:44.327Z,1.70
2022-08-26T20:18:29.520Z,1.83
2022-08-26T20:21:15.582Z,1.50
2022-08-26T20:23:43.547Z,1.73
2022-08-26T20:26:10.255Z,1.60
2022-08-26T20:28:36.959Z,1.42
2022-08-26T20:31:03.722Z,1.73
2022-08-26T20:33:31.562Z,1.55
2022-08-26T20:36:13.862Z,1.60
2022-08-26T20:38:41.184Z,1.65
2022-08-26T20:41:07.856Z,1.92
2022-08-26T20:43:34.598Z,1.70
2022-08-26T20:46:01.527Z,1.58
2022-08-26T20:48:28.337Z,2.33
2022-08-26T20:50:59.122Z,1.60
2022-08-26T20:53:26.875Z,1.60
2022-08-26T20:55:54.950Z,1.80
2022-08-26T20:58:23.971Z,1.90
2022-08-26T21:00:50.786Z,2.00
2022-08-26T21:03:17.462Z,1.88
2022-08-26T21:05:44.187Z,1.95
2022-08-26T21:08:11.619Z,2.15
2022-08-26T21:10:39.232Z,1.80
2022-08-26T21:13:06.536Z,1.85
2022-08-26T21:15:33.884Z,2.17
2022-08-26T21:18:00.993Z,1.90
2022-08-26T21:20:27.655Z,2.03
2022-08-26T21:22:54.300Z,2.00
2022-08-26T21:25:21.215Z,2.15
2022-08-26T21:27:47.965Z,1.55
2022-08-26T21:30:15.796Z,2.13
2022-08-26T21:32:42.784Z,1.88
2022-08-26T21:35:09.890Z,2.05
2022-08-26T21:37:36.510Z,1.70
2022-08-26T21:40:05.402Z,1.83
2022-08-26T21:42:33.987Z,1.90
2022-08-26T21:45:01.503Z,1.63
2022-08-26T21:47:28.480Z,1.70
2022-08-26T21:49:55.159Z,1.70
2022-08-26T21:52:22.016Z,1.52
2022-08-26T21:54:49.511Z,1.50
2022-08-26T21:57:16.940Z,1.80
2022-08-26T21:59:43.592Z,1.63
2022-08-26T22:02:11.098Z,1.70
2022-08-26T22:04:37.822Z,1.58
2022-08-26T22:07:04.899Z,1.60
2022-08-26T22:09:32.236Z,1.60
2022-08-26T22:12:00.494Z,1.88
2022-08-26T22:14:30.652Z,1.48
2022-08-26T22:16:58.955Z,1.70
2022-08-26T22:19:26.554Z,1.55
2022-08-26T22:21:55.110Z,1.52
2022-08-26T22:24:24.082Z,2.03
2022-08-26T22:26:51.665Z,1.67
2022-08-26T22:29:19.059Z,1.50
2022-08-26T22:31:46.286Z,2.35
2022-08-26T22:34:16.983Z,1.58
2022-08-26T22:36:45.814Z,1.63
2022-08-26T22:39:13.967Z,1.70
2022-08-26T22:41:42.903Z,1.90
2022-08-26T22:44:11.499Z,1.70
2022-08-26T22:46:38.574Z,1.60
2022-08-26T22:49:06.358Z,1.85
2022-08-26T22:51:33.211Z,1.60
2022-08-26T22:54:00.496Z,1.58
2022-08-26T22:56:27.304Z,1.45
2022-08-26T22:58:54.019Z,1.60
2022-08-26T23:01:20.775Z,1.60
2022-08-26T23:03:47.637Z,1.83
2022-08-26T23:06:14.387Z,2.15
2022-08-26T23:08:41.920Z,1.52
2022-08-26T23:11:10.205Z,1.80
2022-08-26T23:13:36.899Z,1.70
2022-08-26T23:16:07.262Z,1.60
2022-08-26T23:18:33.939Z,1.80
2022-08-26T23:21:00.987Z,1.85
2022-08-26T23:23:27.755Z,1.60
2022-08-26T23:25:55.451Z,1.60
2022-08-26T23:28:23.360Z,1.42
2022-08-26T23:30:50.297Z,1.60
2022-08-26T23:33:17.023Z,1.75
2022-08-26T23:35:43.773Z,1.60
2022-08-26T23:38:12.861Z,1.60
2022-08-26T23:40:41.834Z,1.52
2022-08-26T23:43:11.338Z,1.48
2022-08-26T23:45:38.571Z,1.55
2022-08-26T23:48:05.946Z,1.67
2022-08-26T23:50:52.984Z,1.50
2022-08-26T23:53:22.073Z,1.40
2022-08-26T23:55:51.181Z,1.40
2022-08-26T23:58:19.672Z,1.88
